createdAt,value
2022-12-08T00:02:11.151Z,100583.19
2022-12-08T00:07:39.955Z,100594.38
2022-12-08T00:12:36.920Z,100579.56
2022-12-08T00:17:33.689Z,100575.22
2022-12-08T00:22:32.474Z,100560.50
2022-12-08T00:27:29.225Z,100566.91
2022-12-08T00:32:34.848Z,100588.19
2022-12-08T00:37:31.697Z,100592.16
2022-12-08T00:42:28.575Z,100555.09
2022-12-08T00:47:25.489Z,100552.09
2022-12-08T00:52:22.207Z,100543.94
2022-12-08T00:57:19.137Z,100541.94
2022-12-08T01:02:24.794Z,100529.53
2022-12-08T01:07:21.509Z,100541.31
2022-12-08T01:12:18.460Z,100542.69
2022-12-08T01:17:24.477Z,100523.69
2022-12-08T01:22:21.429Z,100522.47
2022-12-08T01:27:18.109Z,100525.69
2022-12-08T01:32:14.778Z,100547.66
2022-12-08T01:37:12.786Z,100546.59
2022-12-08T01:42:21.429Z,100526.66
2022-12-08T01:47:18.313Z,100510.25
2022-12-08T01:52:21.472Z,100501.28
2022-12-08T01:57:23.737Z,100479.88
2022-12-08T02:02:21.983Z,100530.28
2022-12-08T02:07:18.935Z,100495.13
2022-12-08T02:12:21.680Z,100498.47
2022-12-08T02:17:31.748Z,100501.56
2022-12-08T02:28:13.011Z,100472.00
2022-12-08T02:33:50.001Z,100501.38
2022-12-08T02:39:00.451Z,100469.59
2022-12-08T02:44:39.114Z,100472.72
2022-12-08T02:49:36.246Z,100460.44
2022-12-08T02:54:32.896Z,100483.53
2022-12-08T02:59:51.003Z,100472.84
2022-12-08T03:05:06.345Z,100466.63
2022-12-08T03:10:12.999Z,100461.38
2022-12-08T03:15:14.580Z,100439.03
2022-12-08T03:20:26.790Z,100453.66
2022-12-08T03:25:29.520Z,100437.13
2022-12-08T03:30:28.801Z,100417.78
2022-12-08T03:35:30.206Z,100405.69
2022-12-08T03:40:27.041Z,100402.22
2022-12-08T03:45:23.797Z,100432.69
2022-12-08T03:50:20.648Z,100410.41
2022-12-08T03:55:17.530Z,100415.59
2022-12-08T04:00:16.819Z,100401.63
2022-12-08T04:05:13.708Z,100402.53
2022-12-08T04:10:12.974Z,100381.97
2022-12-08T04:15:10.799Z,100382.69
2022-12-08T04:20:07.849Z,100390.88
2022-12-08T04:25:05.102Z,100377.03
2022-12-08T04:30:04.338Z,100391.66
2022-12-08T04:35:01.181Z,100388.25
2022-12-08T04:39:57.798Z,100378.16
2022-12-08T04:45:05.593Z,100384.13
2022-12-08T04:50:02.879Z,100390.75
2022-12-08T04:54:59.741Z,100389.66
2022-12-08T04:59:56.681Z,100357.63
2022-12-08T05:04:56.478Z,100389.09
2022-12-08T05:09:53.425Z,100375.75
2022-12-08T05:14:50.267Z,100368.00
2022-12-08T05:19:50.291Z,100377.38
2022-12-08T05:24:47.953Z,100389.34
2022-12-08T05:29:50.543Z,100378.94
2022-12-08T05:46:49.509Z,100364.81
2022-12-08T06:26:26.824Z,100374.69
2022-12-08T06:31:25.063Z,100407.38
2022-12-08T06:36:24.197Z,100414.81
2022-12-08T06:41:21.244Z,100415.00
2022-12-08T06:46:19.095Z,100424.38
2022-12-08T08:34:18.703Z,100441.75
2022-12-08T08:39:15.331Z,100442.53
2022-12-08T08:44:14.845Z,100437.34
2022-12-08T11:43:30.003Z,100501.81
2022-12-08T11:48:34.697Z,100482.22
2022-12-08T11:54:08.942Z,100501.59
2022-12-08T11:59:26.582Z,100500.56
2022-12-08T12:04:48.136Z,100502.19
2022-12-08T12:10:24.622Z,100501.34
2022-12-08T12:16:11.610Z,100496.88
2022-12-08T12:28:11.006Z,100504.19
2022-12-08T12:33:25.923Z,100489.50
2022-12-08T12:43:42.242Z,100502.81
2022-12-08T12:48:49.312Z,100483.22
2022-12-08T13:15:40.153Z,100509.09
2022-12-08T13:21:17.834Z,100509.09
2022-12-08T13:26:17.989Z,100510.06
2022-12-08T14:08:59.933Z,100519.47
2022-12-08T14:13:51.386Z,100517.84
2022-12-08T14:39:29.239Z,100539.13
2022-12-08T14:44:31.347Z,100536.06
2022-12-08T14:54:33.060Z,100543.03
2022-12-08T14:59:31.274Z,100545.78
2022-12-08T15:05:09.678Z,100555.63
2022-12-08T15:10:27.174Z,100555.97
2022-12-08T15:15:23.641Z,100568.31
2022-12-08T15:20:33.384Z,100569.16
2022-12-08T15:25:31.322Z,100570.00
2022-12-08T15:30:28.512Z,100579.16
2022-12-08T15:35:25.073Z,100576.47
2022-12-08T15:40:23.052Z,100590.78
2022-12-08T15:45:31.128Z,100569.25
2022-12-08T15:50:28.200Z,100561.56
2022-12-08T15:55:24.911Z,100593.06
2022-12-08T16:06:20.203Z,100599.09
2022-12-08T16:11:56.532Z,100558.03
2022-12-08T16:16:43.425Z,100594.03
2022-12-08T16:22:23.800Z,100610.13
2022-12-08T16:32:16.751Z,100581.88
2022-12-08T16:37:18.745Z,100579.97
2022-12-08T16:42:35.943Z,100582.78
2022-12-08T16:47:36.371Z,100574.78
2022-12-08T16:52:34.608Z,100579.09
2022-12-08T16:57:43.013Z,100623.03
2022-12-08T17:02:41.260Z,100603.09
2022-12-08T17:07:43.256Z,100599.19
2022-12-08T17:12:40.538Z,100639.66
2022-12-08T17:17:38.878Z,100628.03
2022-12-08T17:22:38.437Z,100640.03
2022-12-08T17:27:36.152Z,100617.91
2022-12-08T17:32:32.879Z,100617.81
2022-12-08T17:37:29.692Z,100608.41
2022-12-08T17:42:29.703Z,100613.03
2022-12-08T17:47:29.778Z,100609.63
2022-12-08T17:52:28.680Z,100596.66
2022-12-08T17:57:25.860Z,100597.59
2022-12-08T18:02:25.130Z,100619.47
2022-12-08T18:07:23.153Z,100615.50
2022-12-08T18:12:24.001Z,100628.44
2022-12-08T18:17:20.971Z,100598.44
2022-12-08T18:22:17.855Z,100595.75
2022-12-08T18:27:18.952Z,100632.16
2022-12-08T18:32:15.859Z,100618.19
2022-12-08T18:37:12.555Z,100594.34
2022-12-08T18:42:23.531Z,100600.47
2022-12-08T18:47:20.321Z,100608.97
2022-12-08T18:57:22.488Z,100648.84
2022-12-08T19:02:29.634Z,100642.78
2022-12-08T19:07:27.271Z,100604.09
2022-12-08T19:12:24.095Z,100618.69
2022-12-08T19:17:21.172Z,100603.38
2022-12-08T19:27:32.482Z,100629.59
2022-12-08T19:32:30.953Z,100639.53
2022-12-08T19:37:30.649Z,100635.66
2022-12-08T19:42:46.210Z,100634.88
2022-12-08T19:52:54.985Z,100663.25
2022-12-08T19:57:52.482Z,100642.44
2022-12-08T20:02:49.436Z,100670.22
2022-12-08T20:13:19.468Z,100658.03
2022-12-08T20:23:23.825Z,100681.94
2022-12-08T20:28:20.891Z,100664.41
2022-12-08T20:33:17.917Z,100685.88
2022-12-08T20:38:14.786Z,100662.25
2022-12-08T20:43:11.741Z,100679.47
2022-12-08T20:48:14.372Z,100694.47
2022-12-08T20:53:11.586Z,100691.66
2022-12-08T20:58:08.736Z,100670.91
2022-12-08T21:03:05.767Z,100690.09
2022-12-08T21:08:02.668Z,100687.50
2022-12-08T21:13:11.038Z,100699.28
2022-12-08T21:18:08.338Z,100680.56
2022-12-08T21:28:32.779Z,100700.88
2022-12-08T21:39:15.814Z,100697.13
2022-12-08T21:44:38.398Z,100672.38
2022-12-08T21:49:43.484Z,100687.16
2022-12-08T21:54:54.845Z,100693.38
2022-12-08T22:00:06.977Z,100681.59
2022-12-08T22:05:21.658Z,100692.00
2022-12-08T22:10:29.591Z,100720.38
2022-12-08T22:15:31.385Z,100700.84
2022-12-08T22:20:29.450Z,100692.38
2022-12-08T22:25:28.426Z,100707.97
2022-12-08T22:30:38.851Z,100691.25
2022-12-08T22:35:36.220Z,100693.91
2022-12-08T22:40:33.324Z,100712.59
2022-12-08T22:45:30.076Z,100719.44
2022-12-08T22:50:27.458Z,100695.69
2022-12-08T22:55:24.643Z,100699.13
2022-12-08T23:00:21.729Z,100708.97
2022-12-08T23:05:18.886Z,100724.38
2022-12-08T23:10:19.003Z,100683.53
2022-12-08T23:15:17.028Z,100705.69
2022-12-08T23:20:17.703Z,100695.63
2022-12-08T23:25:22.532Z,100719.72
2022-12-08T23:30:27.828Z,100716.44
2022-12-08T23:35:27.398Z,100679.66
2022-12-08T23:40:24.744Z,100709.75
2022-12-08T23:45:22.088Z,100728.00
2022-12-08T23:50:19.887Z,100687.78
2022-12-08T23:55:24.329Z,100707.66
